createdAt,value
2022-08-18T00:02:15.130Z,95380.00
2022-08-18T00:07:47.148Z,95384.00
2022-08-18T00:13:15.144Z,95373.00
2022-08-18T00:18:43.008Z,95370.00
2022-08-18T00:24:11.358Z,95371.00
2022-08-18T00:29:39.367Z,95373.00
2022-08-18T00:35:11.006Z,95372.00
2022-08-18T00:40:52.088Z,95401.00
2022-08-18T00:46:31.745Z,95386.00
2022-08-18T00:52:00.923Z,95372.00
2022-08-18T00:57:30.496Z,95375.00
2022-08-18T01:03:03.730Z,95375.00
2022-08-18T01:08:32.008Z,95401.00
2022-08-18T01:14:00.578Z,95401.00
2022-08-18T01:19:47.743Z,95396.00
2022-08-18T01:25:40.735Z,95395.00
2022-08-18T01:31:10.416Z,95404.00
2022-08-18T01:36:40.988Z,95398.00
2022-08-18T01:42:09.149Z,95401.00
2022-08-18T01:47:47.363Z,95395.00
2022-08-18T01:53:27.424Z,95365.00
2022-08-18T01:58:56.696Z,95369.00
2022-08-18T02:04:37.546Z,95363.00
2022-08-18T02:10:16.311Z,95366.00
2022-08-18T02:15:45.562Z,95367.00
2022-08-18T02:21:19.112Z,95365.00
2022-08-18T02:26:47.557Z,95375.00
2022-08-18T02:32:15.392Z,95364.00
2022-08-18T02:37:48.034Z,95357.00
2022-08-18T02:43:17.263Z,95361.00
2022-08-18T02:48:45.845Z,95359.00
2022-08-18T02:54:14.006Z,95342.00
2022-08-18T02:59:42.334Z,95327.00
2022-08-18T03:05:16.578Z,95341.00
2022-08-18T03:10:46.229Z,95349.00
2022-08-18T03:16:16.118Z,95346.00
2022-08-18T03:21:47.813Z,95349.00
2022-08-18T03:27:16.519Z,95335.00
2022-08-18T03:32:45.922Z,95329.00
2022-08-18T03:38:14.316Z,95334.00
2022-08-18T03:43:51.292Z,95326.00
2022-08-18T03:49:21.062Z,95327.00
2022-08-18T03:54:48.800Z,95336.00
2022-08-18T04:00:18.117Z,95309.00
2022-08-18T04:05:46.609Z,95314.00
2022-08-18T04:11:15.423Z,95331.00
2022-08-18T04:16:43.816Z,95321.00
2022-08-18T04:22:18.339Z,95305.00
2022-08-18T04:27:51.131Z,95295.00
2022-08-18T04:33:19.771Z,95287.00
2022-08-18T04:38:47.891Z,95290.00
2022-08-18T04:44:17.786Z,95292.00
2022-08-18T04:49:46.099Z,95287.00
2022-08-18T04:55:17.788Z,95300.00
2022-08-18T05:00:46.923Z,95311.00
2022-08-18T05:06:15.446Z,95328.00
2022-08-18T05:11:46.315Z,95329.00
2022-08-18T05:17:16.399Z,95332.00
2022-08-18T05:22:44.772Z,95341.00
2022-08-18T05:28:14.368Z,95342.00
2022-08-18T05:33:43.979Z,95353.00
2022-08-18T05:39:45.405Z,95360.00
2022-08-18T05:45:18.128Z,95360.00
2022-08-18T05:50:46.159Z,95364.00
2022-08-18T05:56:32.937Z,95373.00
2022-08-18T06:02:59.902Z,95383.00
2022-08-18T06:08:41.425Z,95361.00
2022-08-18T06:14:09.678Z,95369.00
2022-08-18T06:19:55.169Z,95374.00
2022-08-18T06:25:53.786Z,95381.00
2022-08-18T06:31:52.898Z,95370.00
2022-08-18T06:38:16.690Z,95368.00
2022-08-18T06:44:06.261Z,95347.00
2022-08-18T06:50:26.802Z,95354.00
2022-08-18T06:55:55.235Z,95356.00
2022-08-18T07:01:25.220Z,95307.00
2022-08-18T07:06:53.459Z,95320.00
2022-08-18T07:12:32.574Z,95340.00
2022-08-18T07:18:09.192Z,95339.00
2022-08-18T07:23:40.291Z,95328.00
2022-08-18T07:29:16.240Z,95347.00
2022-08-18T07:34:53.152Z,95350.00
2022-08-18T07:40:40.352Z,95340.00
2022-08-18T07:46:19.579Z,95322.00
2022-08-18T07:51:54.448Z,95321.00
2022-08-18T07:57:49.336Z,95319.00
2022-08-18T08:03:56.995Z,95336.00
2022-08-18T08:09:53.999Z,95335.00
2022-08-18T08:15:43.688Z,95340.00
2022-08-18T08:21:18.372Z,95321.00
2022-08-18T08:27:28.194Z,95316.00
2022-08-18T08:33:23.445Z,95330.00
2022-08-18T08:39:37.768Z,95301.00
2022-08-18T08:45:22.404Z,95299.00
2022-08-18T08:51:02.821Z,95303.00
2022-08-18T08:56:39.997Z,95309.00
2022-08-18T09:02:27.010Z,95298.00
2022-08-18T09:08:13.380Z,95285.00
2022-08-18T09:14:11.989Z,95279.00
2022-08-18T09:20:09.796Z,95292.00
2022-08-18T09:25:43.211Z,95300.00
2022-08-18T09:31:10.996Z,95309.00
2022-08-18T09:36:44.954Z,95274.00
2022-08-18T09:42:33.012Z,95266.00
2022-08-18T09:48:30.413Z,95278.00
2022-08-18T09:54:14.949Z,95264.00
2022-08-18T10:05:37.161Z,95290.00
2022-08-18T10:11:24.194Z,95270.00
2022-08-18T10:17:27.384Z,95277.00
2022-08-18T10:22:57.464Z,95296.00
2022-08-18T10:28:57.311Z,95312.00
2022-08-18T10:34:51.858Z,95300.00
2022-08-18T10:40:26.526Z,95289.00
2022-08-18T10:52:20.022Z,95278.00
2022-08-18T10:58:28.017Z,95253.00
2022-08-18T11:10:27.915Z,95245.00
2022-08-18T11:16:28.991Z,95256.00
2022-08-18T11:21:57.569Z,95236.00
2022-08-18T11:27:35.753Z,95228.00
2022-08-18T11:33:05.920Z,95220.00
2022-08-18T11:38:37.697Z,95204.00
2022-08-18T11:44:21.792Z,95209.00
2022-08-18T11:49:58.877Z,95194.00
2022-08-18T11:55:36.080Z,95162.00
2022-08-18T12:01:04.027Z,95134.00
2022-08-18T12:06:32.901Z,95119.00
2022-08-18T12:12:14.187Z,95110.00
2022-08-18T12:23:39.021Z,95165.00
2022-08-18T12:29:18.941Z,95142.00
2022-08-18T12:34:49.735Z,95154.00
2022-08-18T12:40:19.528Z,95138.00
2022-08-18T12:45:47.807Z,95146.00
2022-08-18T12:51:16.021Z,95156.00
2022-08-18T12:56:46.370Z,95148.00
2022-08-18T13:02:14.416Z,95149.00
2022-08-18T13:07:43.439Z,95147.00
2022-08-18T13:13:11.355Z,95133.00
2022-08-18T13:18:43.809Z,95100.00
2022-08-18T13:24:12.803Z,95095.00
2022-08-18T13:29:41.720Z,95089.00
2022-08-18T13:35:13.613Z,95108.00
2022-08-18T13:40:45.510Z,95114.00
2022-08-18T13:46:18.620Z,95123.00
2022-08-18T13:52:00.780Z,95126.00
2022-08-18T13:57:29.646Z,95108.00
2022-08-18T14:02:58.980Z,95079.00
2022-08-18T14:08:27.571Z,95054.00
2022-08-18T14:13:56.638Z,95041.00
2022-08-18T14:25:34.242Z,95025.00
2022-08-18T14:31:04.175Z,95012.00
2022-08-18T14:36:35.863Z,95021.00
2022-08-18T14:42:04.554Z,95013.00
2022-08-18T14:47:37.216Z,95007.00
2022-08-18T14:53:06.510Z,95010.00
2022-08-18T14:58:35.272Z,94998.00
2022-08-18T15:04:19.400Z,95000.00
2022-08-18T15:09:47.700Z,94993.00
2022-08-18T15:15:18.098Z,94997.00
2022-08-18T15:21:05.168Z,95004.00
2022-08-18T15:26:38.716Z,95005.00
2022-08-18T15:32:10.230Z,95016.00
2022-08-18T15:37:39.641Z,95023.00
2022-08-18T15:43:12.312Z,95009.00
2022-08-18T15:48:41.545Z,94986.00
2022-08-18T15:54:11.341Z,94992.00
2022-08-18T15:59:40.117Z,94990.00
2022-08-18T16:05:11.871Z,94984.00
2022-08-18T16:10:42.191Z,94980.00
2022-08-18T16:16:12.558Z,94977.00
2022-08-18T16:21:40.526Z,94985.00
2022-08-18T16:27:09.208Z,94983.00
2022-08-18T16:32:37.325Z,94973.00
2022-08-18T16:38:09.617Z,94981.00
2022-08-18T16:43:39.862Z,94981.00
2022-08-18T16:49:08.158Z,94984.00
2022-08-18T16:54:43.419Z,94977.00
2022-08-18T17:00:31.198Z,94982.00
2022-08-18T17:06:07.373Z,94977.00
2022-08-18T17:11:38.647Z,94975.00
2022-08-18T17:17:20.436Z,94986.00
2022-08-18T17:22:48.488Z,94989.00
2022-08-18T17:28:23.852Z,95000.00
2022-08-18T17:34:00.205Z,95023.00
2022-08-18T17:39:41.922Z,95063.00
2022-08-18T17:45:21.662Z,95088.00
2022-08-18T17:51:22.582Z,95058.00
2022-08-18T17:57:01.935Z,95076.00
2022-08-18T18:02:33.691Z,95073.00
2022-08-18T18:08:02.261Z,95087.00
2022-08-18T18:13:32.544Z,95095.00
2022-08-18T18:19:07.505Z,95110.00
2022-08-18T18:24:50.343Z,95118.00
2022-08-18T18:30:27.725Z,95123.00
2022-08-18T18:35:59.318Z,95138.00
2022-08-18T18:41:28.737Z,95138.00
2022-08-18T18:47:24.485Z,95154.00
2022-08-18T18:53:19.025Z,95153.00
2022-08-18T18:59:08.101Z,95140.00
2022-08-18T19:04:44.096Z,95145.00
2022-08-18T19:10:42.698Z,95164.00
2022-08-18T19:16:24.258Z,95192.00
2022-08-18T19:22:06.874Z,95208.00
2022-08-18T19:27:51.076Z,95210.00
2022-08-18T19:33:32.539Z,95222.00
2022-08-18T19:39:43.594Z,95211.00
2022-08-18T19:45:33.703Z,95224.00
2022-08-18T19:51:12.242Z,95216.00
2022-08-18T19:57:03.687Z,95241.00
2022-08-18T20:02:53.148Z,95224.00
2022-08-18T20:09:14.688Z,95232.00
2022-08-18T20:14:43.773Z,95222.00
2022-08-18T20:20:18.347Z,95203.00
2022-08-18T20:25:48.624Z,95163.00
2022-08-18T20:31:17.176Z,95163.00
2022-08-18T20:36:47.202Z,95183.00
2022-08-18T20:42:21.049Z,95204.00
2022-08-18T20:48:03.616Z,95221.00
2022-08-18T20:54:03.784Z,95250.00
2022-08-18T21:00:16.254Z,95284.00
2022-08-18T21:06:00.073Z,95295.00
2022-08-18T21:11:44.425Z,95293.00
2022-08-18T21:17:15.485Z,95272.00
2022-08-18T21:22:46.309Z,95277.00
2022-08-18T21:28:14.234Z,95272.00
2022-08-18T21:33:57.170Z,95250.00
2022-08-18T21:39:28.538Z,95240.00
2022-08-18T21:45:00.866Z,95229.00
2022-08-18T21:50:35.173Z,95227.00
2022-08-18T21:56:03.375Z,95235.00
2022-08-18T22:01:33.801Z,95242.00
2022-08-18T22:07:08.725Z,95256.00
2022-08-18T22:13:19.464Z,95257.00
2022-08-18T22:19:18.825Z,95246.00
2022-08-18T22:24:55.759Z,95238.00
2022-08-18T22:30:25.233Z,95214.00
2022-08-18T22:35:57.691Z,95190.00
2022-08-18T22:41:26.112Z,95169.00
2022-08-18T22:46:54.412Z,95169.00
2022-08-18T22:52:32.510Z,95156.00
2022-08-18T22:58:00.746Z,95158.00
2022-08-18T23:03:30.422Z,95162.00
2022-08-18T23:09:02.675Z,95178.00
2022-08-18T23:14:33.013Z,95166.00
2022-08-18T23:20:01.422Z,95153.00
2022-08-18T23:25:29.376Z,95154.00
2022-08-18T23:30:58.005Z,95174.00
2022-08-18T23:36:25.993Z,95191.00
2022-08-18T23:41:54.363Z,95193.00
2022-08-18T23:47:23.395Z,95218.00
2022-08-18T23:52:59.592Z,95241.00
2022-08-18T23:58:27.881Z,95262.00
